KGEY/GEY METAR and TAF weather

Enter ICAO airport designator
Station Type Date Time Source
KGEY METAR 2021/09/23 17:53 UTC NOAA

KGEY 231753Z AUTO 00000KT 10SM CLR 22/00 A3012 RMK AO2 SLP178 T02170000 10217 20039 58002


Station Type Date Time Source
KGEY Decoded METAR 2021/09/23 17:53 UTC NOAA

SOUTH BIG HORN COUNTY AIRPORT , WY, United States (KGEY) 44-31N 108-05W 1191M
Sep 23, 2021 - 01:53 PM EDT / 2021.09.23 1753 UTC
Wind: Calm:0
Visibility: 10 mile(s):0
Sky conditions: clear
Temperature: 71.1 F (21.7 C)
Dew Point: 32.0 F (0.0 C)
Relative Humidity: 23%
Pressure (altimeter): 30.12 in. Hg (1019 hPa)
Pressure tendency: 0.01 inches (0.2 hPa) lower than three hours ago
ob: KGEY 231753Z AUTO 00000KT 10SM CLR 22/00 A3012 RMK AO2 SLP178 T02170000 10217 20039 58002
cycle: 18

Station Type Date Time Source
KGEY TAF UTC NOAA

Error!

Example: see airport list